Time;durP1;ratioP1;P1;durP2;ratioP2;P2;SDS_P1;SDS_P2;PMS_P1;PMS_P2;Temp;Humidity;BMP_temperature;BMP_pressure;BME280_temperature;BME280_humidity;BME280_pressure;Samples;Min_cycle;Max_cycle;Signal;HPM_P1;HPM_P2
2021/12/15 00:02:10;;;;;;;62.17;29.73;;;;;;;;;;5024842;28;20470;-81
2021/12/15 00:04:38;;;;;;;64.43;30.30;;;;;;;;;;5025269;28;20862;-81
2021/12/15 00:07:04;;;;;;;75.17;32.57;;;;;;;;;;5022898;28;20473;-78
2021/12/15 00:09:31;;;;;;;65.23;27.40;;;;;;;;;;5024493;28;20868;-82
2021/12/15 00:11:57;;;;;;;70.37;29.10;;;;;;;;;;5025469;28;20529;-82
2021/12/15 00:14:23;;;;;;;67.37;29.83;;;;;;;;;;5024736;28;20481;-82
2021/12/15 00:16:51;;;;;;;85.30;29.97;;;;;;;;;;5025884;28;20897;-81
2021/12/15 00:19:17;;;;;;;68.70;29.90;;;;;;;;;;5025499;28;20462;-82
2021/12/15 00:21:45;;;;;;;59.60;28.67;;;;;;;;;;5024250;28;20472;-82
2021/12/15 00:24:12;;;;;;;79.03;32.10;;;;;;;;;;5024611;28;20468;-81
2021/12/15 00:26:38;;;;;;;78.20;32.10;;;;;;;;;;5029353;28;20448;-82
2021/12/15 00:29:06;;;;;;;72.27;30.80;;;;;;;;;;5030977;28;20878;-82
2021/12/15 00:31:33;;;;;;;66.93;30.07;;;;;;;;;;5027553;28;20492;-82
2021/12/15 00:33:59;;;;;;;74.80;30.80;;;;;;;;;;5029800;28;20500;-81
2021/12/15 00:36:26;;;;;;;69.83;29.50;;;;;;;;;;5030777;28;20458;-82
2021/12/15 00:38:53;;;;;;;77.83;31.80;;;;;;;;;;5026834;28;20542;-82
2021/12/15 00:41:19;;;;;;;89.33;29.90;;;;;;;;;;5027226;28;20568;-81
2021/12/15 00:43:46;;;;;;;69.77;29.47;;;;;;;;;;5027386;28;20477;-82
2021/12/15 00:46:12;;;;;;;82.50;32.10;;;;;;;;;;5030632;28;20480;-81
2021/12/15 00:48:39;;;;;;;89.73;31.87;;;;;;;;;;5029310;28;21151;-81
2021/12/15 00:51:05;;;;;;;90.87;33.97;;;;;;;;;;5030657;28;20508;-82
2021/12/15 00:53:31;;;;;;;85.97;33.03;;;;;;;;;;5031824;28;20481;-82
2021/12/15 00:55:59;;;;;;;85.50;33.10;;;;;;;;;;5027478;28;20460;-82
2021/12/15 00:58:25;;;;;;;80.27;31.80;;;;;;;;;;5026324;28;20473;-81
2021/12/15 01:00:54;;;;;;;85.53;31.57;;;;;;;;;;5027539;28;20445;-82
2021/12/15 01:03:20;;;;;;;80.90;31.20;;;;;;;;;;5026835;28;20562;-81
2021/12/15 01:05:48;;;;;;;91.07;35.73;;;;;;;;;;5028170;28;20492;-82
2021/12/15 01:08:16;;;;;;;90.07;34.43;;;;;;;;;;5027781;28;20495;-81
2021/12/15 01:10:57;;;;;;;88.50;32.50;;;;;;;;;;5028785;28;20503;-80
2021/12/15 01:21:37;;;;;;;93.33;35.97;;;;;;;;;;5025431;28;20453;-82
2021/12/15 01:24:04;;;;;;;117.53;36.47;;;;;;;;;;5027095;28;20476;-81
2021/12/15 01:26:31;;;;;;;108.33;38.60;;;;;;;;;;5025097;28;20489;-82
2021/12/15 01:28:58;;;;;;;122.37;42.80;;;;;;;;;;5027402;28;20456;-82
2021/12/15 01:31:25;;;;;;;122.10;41.00;;;;;;;;;;5027982;28;20456;-81
2021/12/15 01:33:51;;;;;;;122.50;38.70;;;;;;;;;;5027237;28;20476;-81
2021/12/15 01:36:17;;;;;;;123.93;40.67;;;;;;;;;;5027223;28;20449;-81
2021/12/15 01:38:45;;;;;;;131.27;40.97;;;;;;;;;;5027837;28;20472;-81
2021/12/15 01:41:19;;;;;;;126.33;43.97;;;;;;;;;;5028152;28;20445;-81
2021/12/15 01:46:51;;;;;;;131.77;42.00;;;;;;;;;;5027409;28;20484;-82
2021/12/15 01:46:58;;;;;;;123.67;38.90;;;;;;;;;;5026208;28;20471;-81
2021/12/15 01:49:27;;;;;;;148.83;45.67;;;;;;;;;;5027927;28;20452;-81
2021/12/15 01:51:53;;;;;;;134.60;44.10;;;;;;;;;;5026911;28;20507;-81
2021/12/15 01:54:20;;;;;;;109.47;38.60;;;;;;;;;;5028730;28;20496;-81
2021/12/15 01:56:46;;;;;;;142.00;44.83;;;;;;;;;;5026338;28;20455;-80
2021/12/15 01:59:14;;;;;;;134.87;45.27;;;;;;;;;;5024568;28;20456;-82
2021/12/15 02:01:42;;;;;;;143.97;42.70;;;;;;;;;;5024755;28;20943;-80
2021/12/15 02:04:08;;;;;;;122.63;41.60;;;;;;;;;;5025102;28;20492;-80
2021/12/15 02:06:38;;;;;;;132.73;42.70;;;;;;;;;;5025008;28;20511;-81
2021/12/15 02:09:05;;;;;;;139.50;42.67;;;;;;;;;;5025272;28;20449;-81
2021/12/15 02:11:31;;;;;;;152.87;43.47;;;;;;;;;;5027612;28;20951;-81
2021/12/15 02:13:58;;;;;;;141.50;46.00;;;;;;;;;;5028624;28;20488;-81
2021/12/15 02:16:24;;;;;;;150.73;44.23;;;;;;;;;;5025804;28;20476;-81
2021/12/15 02:18:51;;;;;;;151.60;44.90;;;;;;;;;;5025456;28;20522;-81
2021/12/15 02:21:20;;;;;;;135.13;45.10;;;;;;;;;;5024269;28;20497;-81
2021/12/15 02:23:51;;;;;;;144.27;43.83;;;;;;;;;;5025316;28;20472;-81
2021/12/15 02:26:19;;;;;;;135.23;44.53;;;;;;;;;;5025594;28;20587;-81
2021/12/15 02:28:47;;;;;;;157.67;49.30;;;;;;;;;;5026834;28;20575;-80
2021/12/15 02:31:19;;;;;;;160.20;45.97;;;;;;;;;;5025966;28;20466;-81
2021/12/15 02:33:59;;;;;;;142.10;44.23;;;;;;;;;;5026025;28;20481;-81
2021/12/15 02:39:11;;;;;;;140.47;47.87;;;;;;;;;;5026028;28;20483;-81
2021/12/15 02:41:38;;;;;;;145.57;45.13;;;;;;;;;;5027836;28;20452;-82
2021/12/15 02:44:06;;;;;;;136.20;45.77;;;;;;;;;;5026093;28;20476;-82
2021/12/15 02:46:33;;;;;;;129.77;43.30;;;;;;;;;;5021812;28;20485;-82
2021/12/15 02:49:01;;;;;;;141.60;42.47;;;;;;;;;;5026893;28;20468;-82
2021/12/15 02:51:28;;;;;;;123.23;45.40;;;;;;;;;;5025299;28;20457;-81
2021/12/15 02:53:55;;;;;;;128.50;45.40;;;;;;;;;;5023411;28;20478;-83
2021/12/15 02:56:21;;;;;;;137.50;47.67;;;;;;;;;;5027510;28;20483;-81
2021/12/15 02:58:52;;;;;;;120.60;43.00;;;;;;;;;;5026268;28;20465;-82
2021/12/15 03:01:26;;;;;;;119.23;43.93;;;;;;;;;;5026108;28;20464;-81
2021/12/15 03:04:12;;;;;;;109.13;41.97;;;;;;;;;;5026553;28;20504;-81
2021/12/15 03:06:48;;;;;;;132.43;48.27;;;;;;;;;;5027356;28;20491;-82
2021/12/15 03:15:16;;;;;;;128.83;43.70;;;;;;;;;;5026786;28;20507;-81
2021/12/15 03:18:04;;;;;;;130.80;47.40;;;;;;;;;;5004588;28;20479;-82
2021/12/15 03:20:33;;;;;;;120.83;44.03;;;;;;;;;;5006334;28;20532;-81
2021/12/15 03:23:01;;;;;;;120.63;43.27;;;;;;;;;;5014915;28;20489;-82
2021/12/15 03:25:30;;;;;;;124.07;46.03;;;;;;;;;;5030062;28;20538;-80
2021/12/15 03:33:55;;;;;;;120.27;48.53;;;;;;;;;;5027210;28;20483;-82
2021/12/15 03:36:36;;;;;;;123.83;47.30;;;;;;;;;;5026657;28;20487;-82
2021/12/15 03:39:04;;;;;;;118.83;47.47;;;;;;;;;;5026452;28;20480;-81
2021/12/15 03:41:31;;;;;;;124.77;47.30;;;;;;;;;;5026442;28;20450;-81
2021/12/15 03:43:57;;;;;;;122.07;47.10;;;;;;;;;;5025554;28;20507;-82
2021/12/15 03:46:23;;;;;;;126.10;49.43;;;;;;;;;;5026279;28;20494;-79
2021/12/15 03:48:50;;;;;;;136.00;48.80;;;;;;;;;;5025301;28;20546;-82
2021/12/15 03:51:16;;;;;;;117.67;44.90;;;;;;;;;;5027576;28;20974;-80
2021/12/15 03:53:43;;;;;;;127.20;49.67;;;;;;;;;;5024702;28;20495;-78
2021/12/15 03:56:13;;;;;;;120.40;45.87;;;;;;;;;;5025160;28;20450;-79
2021/12/15 03:58:39;;;;;;;116.17;48.07;;;;;;;;;;5028370;28;20476;-82
2021/12/15 04:01:07;;;;;;;127.60;45.60;;;;;;;;;;5031769;28;20454;-82
2021/12/15 04:03:35;;;;;;;114.47;45.90;;;;;;;;;;5027221;28;20470;-81
2021/12/15 04:06:03;;;;;;;98.87;42.57;;;;;;;;;;5030563;28;20519;-81
2021/12/15 04:08:29;;;;;;;98.77;41.00;;;;;;;;;;5030165;28;20476;-81
2021/12/15 04:10:56;;;;;;;112.13;44.33;;;;;;;;;;5030329;28;20548;-81
2021/12/15 04:13:24;;;;;;;111.37;41.83;;;;;;;;;;5028665;28;20886;-81
2021/12/15 04:15:55;;;;;;;92.37;40.60;;;;;;;;;;5028748;28;20494;-82
2021/12/15 04:18:22;;;;;;;93.67;40.30;;;;;;;;;;5029617;28;20472;-82
2021/12/15 04:20:48;;;;;;;97.00;41.17;;;;;;;;;;5030467;28;20460;-82
2021/12/15 04:23:18;;;;;;;90.50;35.80;;;;;;;;;;5031638;28;20480;-83
2021/12/15 04:25:46;;;;;;;88.33;40.10;;;;;;;;;;5030958;28;20491;-83
2021/12/15 04:28:14;;;;;;;86.73;38.23;;;;;;;;;;5030627;28;20466;-82
2021/12/15 04:30:46;;;;;;;78.83;36.90;;;;;;;;;;5028598;28;20456;-82
2021/12/15 04:33:13;;;;;;;74.80;36.27;;;;;;;;;;5029191;28;20838;-82
2021/12/15 04:35:40;;;;;;;77.97;35.63;;;;;;;;;;5029347;28;20449;-82
2021/12/15 04:38:06;;;;;;;74.40;34.37;;;;;;;;;;5029958;28;20469;-81
2021/12/15 04:40:33;;;;;;;77.50;34.53;;;;;;;;;;5029962;28;20460;-82
2021/12/15 04:43:00;;;;;;;72.37;33.50;;;;;;;;;;5028806;28;20522;-82
2021/12/15 04:45:27;;;;;;;74.77;33.67;;;;;;;;;;5030438;28;20462;-82
2021/12/15 04:47:55;;;;;;;76.20;34.40;;;;;;;;;;5029336;28;20543;-82
2021/12/15 04:50:23;;;;;;;83.73;35.33;;;;;;;;;;5029224;28;20476;-82
2021/12/15 04:52:50;;;;;;;80.07;33.70;;;;;;;;;;5029825;28;20482;-82
2021/12/15 04:55:17;;;;;;;79.73;33.47;;;;;;;;;;5031392;28;20461;-81
2021/12/15 04:57:43;;;;;;;72.50;33.03;;;;;;;;;;5029973;28;20473;-80
2021/12/15 05:00:13;;;;;;;70.07;33.27;;;;;;;;;;5030277;28;20461;-82
2021/12/15 05:02:39;;;;;;;69.27;31.93;;;;;;;;;;5028610;28;20466;-82
2021/12/15 05:05:08;;;;;;;73.10;33.37;;;;;;;;;;5031220;28;20441;-83
2021/12/15 05:07:35;;;;;;;65.77;31.80;;;;;;;;;;5030823;28;20864;-82
2021/12/15 05:10:01;;;;;;;68.63;32.07;;;;;;;;;;5027580;28;20534;-82
2021/12/15 05:12:27;;;;;;;68.53;32.20;;;;;;;;;;5030275;28;20477;-83
2021/12/15 05:14:54;;;;;;;66.47;33.03;;;;;;;;;;5032376;28;20483;-83
2021/12/15 05:17:20;;;;;;;58.90;30.43;;;;;;;;;;5030750;28;20846;-82
2021/12/15 05:19:47;;;;;;;58.47;27.97;;;;;;;;;;5029243;28;20456;-82
2021/12/15 05:22:15;;;;;;;79.27;31.87;;;;;;;;;;5031445;28;20520;-82
2021/12/15 05:24:42;;;;;;;65.57;29.80;;;;;;;;;;5027201;28;20494;-80
2021/12/15 05:27:10;;;;;;;62.30;29.80;;;;;;;;;;5027538;28;20473;-82
2021/12/15 05:29:37;;;;;;;60.73;30.87;;;;;;;;;;5029605;28;20463;-82
2021/12/15 05:32:04;;;;;;;57.07;27.83;;;;;;;;;;5026493;28;20484;-82
2021/12/15 05:34:31;;;;;;;55.23;28.53;;;;;;;;;;5028038;28;20547;-81
2021/12/15 05:36:58;;;;;;;61.83;29.40;;;;;;;;;;5024396;28;21050;-80
2021/12/15 05:39:26;;;;;;;57.90;29.30;;;;;;;;;;5025703;28;20454;-80
2021/12/15 05:41:52;;;;;;;65.33;30.83;;;;;;;;;;5026411;28;20465;-80
2021/12/15 05:44:18;;;;;;;56.43;29.10;;;;;;;;;;5026471;28;20473;-81
2021/12/15 05:46:45;;;;;;;55.10;25.87;;;;;;;;;;5027537;28;20495;-81
2021/12/15 05:49:11;;;;;;;61.00;28.50;;;;;;;;;;5027741;28;20456;-81
2021/12/15 05:51:38;;;;;;;56.03;28.43;;;;;;;;;;5027334;28;20515;-81
2021/12/15 05:54:04;;;;;;;58.07;28.47;;;;;;;;;;5029096;28;20869;-81
2021/12/15 05:56:32;;;;;;;61.67;29.00;;;;;;;;;;5029341;28;20536;-81
2021/12/15 05:58:58;;;;;;;55.90;27.63;;;;;;;;;;5027364;28;20472;-81
2021/12/15 06:01:24;;;;;;;54.40;30.70;;;;;;;;;;5027730;28;20956;-82
2021/12/15 06:03:51;;;;;;;62.77;31.23;;;;;;;;;;5027761;28;20514;-80
2021/12/15 06:06:17;;;;;;;58.37;29.83;;;;;;;;;;5026914;28;20488;-81
2021/12/15 06:08:43;;;;;;;56.13;29.23;;;;;;;;;;5026123;28;20476;-80
2021/12/15 06:11:09;;;;;;;55.07;28.73;;;;;;;;;;5026041;28;20473;-81
2021/12/15 06:13:37;;;;;;;58.83;29.40;;;;;;;;;;5026970;28;20472;-81
2021/12/15 06:16:05;;;;;;;59.83;29.60;;;;;;;;;;5027666;28;20468;-80
2021/12/15 06:18:32;;;;;;;64.43;31.53;;;;;;;;;;5025850;28;20511;-81
2021/12/15 06:20:58;;;;;;;61.50;31.43;;;;;;;;;;5028807;28;20458;-81
2021/12/15 06:23:25;;;;;;;60.13;31.40;;;;;;;;;;5025526;28;20487;-81
2021/12/15 06:25:52;;;;;;;61.33;29.37;;;;;;;;;;5028059;28;20460;-81
2021/12/15 06:28:19;;;;;;;71.00;33.27;;;;;;;;;;5027734;28;20726;-81
2021/12/15 06:30:47;;;;;;;68.17;34.00;;;;;;;;;;5025271;28;20860;-80
2021/12/15 06:33:14;;;;;;;64.40;33.07;;;;;;;;;;5028105;28;20485;-82
2021/12/15 06:35:41;;;;;;;61.87;31.60;;;;;;;;;;5024505;28;20457;-81
2021/12/15 06:38:08;;;;;;;75.03;34.00;;;;;;;;;;5027543;28;20475;-81
2021/12/15 06:40:34;;;;;;;67.87;32.63;;;;;;;;;;5029302;28;20453;-81
2021/12/15 06:43:01;;;;;;;64.00;32.57;;;;;;;;;;5026755;28;21088;-82
2021/12/15 06:45:34;;;;;;;68.20;31.67;;;;;;;;;;5028528;28;20445;-82
2021/12/15 06:59:04;;;;;;;74.57;34.27;;;;;;;;;;5027477;28;20500;-81
2021/12/15 07:01:30;;;;;;;72.47;35.73;;;;;;;;;;5025819;28;20464;-81
2021/12/15 07:03:57;;;;;;;75.50;34.13;;;;;;;;;;5026844;28;20492;-81
2021/12/15 07:06:24;;;;;;;80.30;36.23;;;;;;;;;;5024529;28;20481;-81
2021/12/15 07:08:51;;;;;;;75.27;35.93;;;;;;;;;;5024009;28;20479;-81
2021/12/15 07:11:17;;;;;;;69.73;34.17;;;;;;;;;;5022762;28;20544;-82
2021/12/15 07:13:43;;;;;;;70.67;34.30;;;;;;;;;;5026898;28;20488;-81
2021/12/15 07:16:10;;;;;;;68.80;34.90;;;;;;;;;;5027237;28;20487;-81
2021/12/15 07:18:43;;;;;;;78.10;37.37;;;;;;;;;;5025941;28;20483;-79
2021/12/15 07:21:15;;;;;;;76.83;37.37;;;;;;;;;;5028460;28;20446;-81
2021/12/15 07:23:42;;;;;;;77.20;37.07;;;;;;;;;;5027278;28;20571;-81
2021/12/15 07:26:08;;;;;;;67.80;34.60;;;;;;;;;;5028134;28;20978;-81
2021/12/15 07:28:34;;;;;;;76.20;36.57;;;;;;;;;;5024816;28;20484;-81
2021/12/15 07:31:01;;;;;;;81.50;36.17;;;;;;;;;;5027200;28;20914;-80
2021/12/15 07:33:28;;;;;;;78.20;38.77;;;;;;;;;;5026841;28;20990;-83
2021/12/15 07:35:54;;;;;;;78.27;37.17;;;;;;;;;;5027987;28;20461;-81
2021/12/15 07:38:22;;;;;;;74.77;37.47;;;;;;;;;;5027284;28;20488;-80
2021/12/15 07:40:48;;;;;;;79.50;37.60;;;;;;;;;;5027351;28;20441;-81
2021/12/15 07:43:24;;;;;;;80.30;39.10;;;;;;;;;;5026677;28;20488;-81
2021/12/15 07:45:52;;;;;;;81.30;38.37;;;;;;;;;;5028213;28;20514;-82
2021/12/15 07:48:19;;;;;;;80.33;37.00;;;;;;;;;;5024925;28;20489;-80
2021/12/15 07:50:47;;;;;;;79.77;39.47;;;;;;;;;;5024108;28;20460;-81
2021/12/15 07:53:14;;;;;;;81.50;38.10;;;;;;;;;;5025160;28;20491;-81
2021/12/15 07:55:42;;;;;;;82.37;40.40;;;;;;;;;;5027721;28;20469;-80
2021/12/15 07:58:09;;;;;;;81.03;39.80;;;;;;;;;;5026920;28;20477;-81
2021/12/15 08:00:37;;;;;;;83.97;40.33;;;;;;;;;;5026202;28;20473;-80
2021/12/15 08:03:03;;;;;;;89.63;41.43;;;;;;;;;;5024327;28;20489;-81
2021/12/15 08:05:29;;;;;;;94.87;44.70;;;;;;;;;;5026832;28;20452;-80
2021/12/15 08:07:56;;;;;;;82.73;40.70;;;;;;;;;;5026566;28;20555;-82
2021/12/15 08:10:22;;;;;;;91.43;42.17;;;;;;;;;;5026264;28;20456;-81
2021/12/15 08:12:50;;;;;;;92.50;43.87;;;;;;;;;;5023118;28;20488;-82
2021/12/15 08:15:17;;;;;;;92.73;39.93;;;;;;;;;;5027568;28;20453;-81
2021/12/15 08:17:48;;;;;;;97.70;46.33;;;;;;;;;;5024598;28;20497;-81
2021/12/15 08:20:14;;;;;;;89.13;41.07;;;;;;;;;;5028395;28;20457;-80
2021/12/15 08:22:41;;;;;;;103.50;42.27;;;;;;;;;;5026419;28;20476;-81
2021/12/15 08:25:09;;;;;;;84.10;40.60;;;;;;;;;;5028543;28;20464;-81
2021/12/15 08:27:35;;;;;;;100.70;41.70;;;;;;;;;;5028538;28;20476;-81
2021/12/15 08:30:05;;;;;;;98.43;46.23;;;;;;;;;;5021334;28;20522;-81
2021/12/15 08:32:31;;;;;;;98.80;45.90;;;;;;;;;;5026765;28;20504;-81
2021/12/15 08:34:57;;;;;;;92.73;44.80;;;;;;;;;;5023653;28;20779;-82
2021/12/15 08:37:24;;;;;;;98.40;43.20;;;;;;;;;;5026451;28;21045;-81
2021/12/15 08:39:50;;;;;;;92.67;42.13;;;;;;;;;;5027959;28;20450;-82
2021/12/15 08:42:16;;;;;;;99.57;46.37;;;;;;;;;;5027740;28;20503;-83
2021/12/15 08:44:43;;;;;;;93.23;42.73;;;;;;;;;;5029281;28;20450;-81
2021/12/15 08:47:10;;;;;;;97.53;46.10;;;;;;;;;;5030610;28;20500;-82
2021/12/15 08:49:37;;;;;;;104.57;48.47;;;;;;;;;;5030639;28;20449;-82
2021/12/15 08:52:04;;;;;;;86.50;41.00;;;;;;;;;;5031436;28;20473;-81
2021/12/15 08:54:30;;;;;;;91.43;45.50;;;;;;;;;;5031261;28;21022;-81
2021/12/15 08:56:56;;;;;;;101.23;43.73;;;;;;;;;;5030681;28;20465;-82
2021/12/15 08:59:23;;;;;;;88.50;42.87;;;;;;;;;;5031411;28;20461;-81
2021/12/15 09:01:50;;;;;;;97.13;43.33;;;;;;;;;;5028458;28;20991;-82
2021/12/15 09:04:19;;;;;;;104.13;45.50;;;;;;;;;;5031209;28;20476;-80
2021/12/15 09:06:45;;;;;;;101.60;44.97;;;;;;;;;;5030895;28;20457;-82
2021/12/15 09:09:13;;;;;;;102.77;47.13;;;;;;;;;;5028731;28;20464;-82
2021/12/15 09:11:40;;;;;;;91.90;42.20;;;;;;;;;;5030463;28;20461;-80
2021/12/15 09:14:06;;;;;;;98.77;47.87;;;;;;;;;;5030015;28;20485;-82
2021/12/15 09:16:35;;;;;;;103.20;44.13;;;;;;;;;;5029894;28;20488;-82
2021/12/15 09:19:02;;;;;;;92.50;43.63;;;;;;;;;;5031498;28;20462;-82
2021/12/15 09:21:31;;;;;;;103.43;45.83;;;;;;;;;;5031854;28;20457;-82
2021/12/15 09:23:58;;;;;;;98.50;44.73;;;;;;;;;;5030142;28;20479;-82
2021/12/15 09:26:24;;;;;;;99.13;46.47;;;;;;;;;;5030340;28;20884;-82
2021/12/15 09:28:51;;;;;;;103.77;45.17;;;;;;;;;;5030685;28;20468;-81
2021/12/15 09:31:18;;;;;;;100.40;46.00;;;;;;;;;;5032633;28;20456;-81
2021/12/15 09:33:45;;;;;;;98.50;46.30;;;;;;;;;;5032202;28;20531;-82
2021/12/15 09:36:13;;;;;;;101.97;46.97;;;;;;;;;;5030654;28;20453;-82
2021/12/15 09:38:42;;;;;;;93.90;44.60;;;;;;;;;;5030477;28;20499;-82
2021/12/15 09:41:11;;;;;;;94.70;43.20;;;;;;;;;;5031548;28;20445;-82
2021/12/15 09:43:37;;;;;;;112.47;46.87;;;;;;;;;;5029750;28;20487;-82
2021/12/15 09:46:11;;;;;;;83.23;42.70;;;;;;;;;;5033010;28;20457;-82
2021/12/15 10:02:40;;;;;;;91.40;45.40;;;;;;;;;;5028922;28;20833;-82
2021/12/15 10:05:22;;;;;;;90.13;42.63;;;;;;;;;;5028812;28;20438;-82
2021/12/15 10:10:47;;;;;;;86.77;41.40;;;;;;;;;;5028589;28;20920;-81
2021/12/15 10:18:47;;;;;;;85.30;41.03;;;;;;;;;;5028043;28;20464;-81
2021/12/15 10:21:20;;;;;;;85.93;40.47;;;;;;;;;;5028545;28;20848;-82
2021/12/15 10:23:49;;;;;;;100.10;44.90;;;;;;;;;;5028048;28;20484;-82
2021/12/15 10:26:16;;;;;;;94.10;42.90;;;;;;;;;;5029148;28;20450;-82
2021/12/15 10:28:48;;;;;;;98.93;46.60;;;;;;;;;;5021763;28;20480;-81
2021/12/15 10:31:15;;;;;;;89.80;41.60;;;;;;;;;;5029099;28;20519;-82
2021/12/15 10:33:45;;;;;;;91.40;44.57;;;;;;;;;;5027248;28;20477;-82
2021/12/15 10:36:13;;;;;;;88.80;43.83;;;;;;;;;;5028764;28;20461;-82
2021/12/15 10:38:42;;;;;;;90.43;43.57;;;;;;;;;;5032265;28;20480;-81
2021/12/15 10:41:09;;;;;;;89.27;40.70;;;;;;;;;;5028762;28;20500;-81
2021/12/15 10:43:40;;;;;;;94.27;42.53;;;;;;;;;;5028899;28;20480;-82
2021/12/15 10:46:07;;;;;;;77.23;39.70;;;;;;;;;;5022041;28;20871;-81
2021/12/15 10:48:41;;;;;;;86.13;43.33;;;;;;;;;;5022301;28;20526;-82
2021/12/15 10:51:28;;;;;;;86.23;41.90;;;;;;;;;;5027708;28;20847;-81
2021/12/15 10:53:56;;;;;;;97.47;41.10;;;;;;;;;;5025842;28;20490;-82
2021/12/15 10:56:24;;;;;;;89.00;40.60;;;;;;;;;;5027755;28;20488;-81
2021/12/15 10:58:53;;;;;;;85.23;41.80;;;;;;;;;;5025267;28;20508;-82
2021/12/15 11:01:36;;;;;;;93.00;42.30;;;;;;;;;;5027457;28;20457;-81
2021/12/15 11:04:04;;;;;;;85.10;41.00;;;;;;;;;;5028353;28;20464;-81
2021/12/15 11:06:33;;;;;;;83.73;41.20;;;;;;;;;;5026300;28;20465;-82
2021/12/15 11:09:13;;;;;;;79.27;41.40;;;;;;;;;;5025863;28;20476;-81
2021/12/15 11:11:54;;;;;;;89.30;40.37;;;;;;;;;;5025878;28;20496;-81
2021/12/15 11:14:26;;;;;;;82.17;39.90;;;;;;;;;;5026322;28;20635;-81
2021/12/15 11:17:02;;;;;;;75.10;37.93;;;;;;;;;;5027431;28;20457;-82
2021/12/15 11:19:38;;;;;;;80.13;40.60;;;;;;;;;;5026315;28;20476;-82
2021/12/15 11:22:24;;;;;;;79.83;38.90;;;;;;;;;;5029244;28;20468;-82
2021/12/15 11:24:52;;;;;;;82.50;40.07;;;;;;;;;;5027784;28;20474;-82
2021/12/15 11:27:21;;;;;;;72.27;37.33;;;;;;;;;;5029153;28;21005;-82
2021/12/15 11:29:47;;;;;;;74.33;38.93;;;;;;;;;;5027973;28;20488;-82
2021/12/15 11:32:28;;;;;;;75.57;39.47;;;;;;;;;;5028275;28;20454;-82
2021/12/15 11:35:00;;;;;;;72.33;35.30;;;;;;;;;;5027870;28;20668;-82
2021/12/15 11:37:41;;;;;;;76.63;37.63;;;;;;;;;;5029236;28;20468;-82
2021/12/15 11:40:09;;;;;;;66.17;34.10;;;;;;;;;;5026582;28;21023;-82
2021/12/15 11:42:37;;;;;;;70.10;36.77;;;;;;;;;;5026362;28;20956;-82
2021/12/15 11:45:04;;;;;;;78.30;36.77;;;;;;;;;;5026968;28;20493;-82
2021/12/15 11:47:33;;;;;;;69.33;34.37;;;;;;;;;;5026978;28;20463;-83
2021/12/15 11:50:06;;;;;;;65.43;34.30;;;;;;;;;;5028416;28;20492;-82
2021/12/15 11:52:37;;;;;;;69.00;34.07;;;;;;;;;;5026515;28;20465;-82
2021/12/15 11:55:04;;;;;;;69.90;36.27;;;;;;;;;;5026680;28;20473;-82
2021/12/15 11:57:32;;;;;;;64.07;36.50;;;;;;;;;;5028417;28;20497;-83
2021/12/15 12:00:04;;;;;;;67.37;37.50;;;;;;;;;;5026721;28;20553;-81
2021/12/15 12:02:32;;;;;;;62.10;35.60;;;;;;;;;;5028899;28;20665;-82
2021/12/15 12:05:00;;;;;;;69.83;34.03;;;;;;;;;;5026321;28;20487;-82
2021/12/15 12:07:27;;;;;;;70.80;33.27;;;;;;;;;;5028140;28;20473;-82
2021/12/15 12:09:55;;;;;;;67.23;37.83;;;;;;;;;;5028855;28;20519;-82
2021/12/15 12:12:25;;;;;;;57.93;31.27;;;;;;;;;;5028095;28;20866;-83
2021/12/15 12:14:53;;;;;;;63.33;30.30;;;;;;;;;;5026811;28;20535;-82
2021/12/15 12:17:20;;;;;;;69.27;33.43;;;;;;;;;;5027870;28;20935;-81
2021/12/15 12:19:52;;;;;;;64.57;31.40;;;;;;;;;;5026145;28;20465;-82
2021/12/15 12:22:19;;;;;;;65.30;33.70;;;;;;;;;;5032449;28;20454;-81
2021/12/15 12:24:46;;;;;;;67.93;32.53;;;;;;;;;;5031059;28;20480;-82
2021/12/15 12:27:13;;;;;;;60.60;33.10;;;;;;;;;;5031551;28;20465;-83
2021/12/15 12:29:39;;;;;;;56.20;31.17;;;;;;;;;;5030687;28;20481;-82
2021/12/15 12:32:08;;;;;;;60.37;31.83;;;;;;;;;;5032127;28;20481;-82
2021/12/15 12:34:34;;;;;;;63.13;31.67;;;;;;;;;;5029431;28;20484;-83
2021/12/15 12:37:00;;;;;;;65.03;32.40;;;;;;;;;;5030047;28;20890;-83
2021/12/15 12:39:31;;;;;;;62.17;32.07;;;;;;;;;;5030658;28;20472;-82
2021/12/15 12:41:57;;;;;;;57.77;30.97;;;;;;;;;;5031855;28;20516;-82
2021/12/15 12:44:24;;;;;;;58.13;31.30;;;;;;;;;;5029648;28;20554;-83
2021/12/15 12:46:56;;;;;;;55.17;30.50;;;;;;;;;;5033696;28;20461;-82
2021/12/15 12:49:55;;;;;;;53.53;30.83;;;;;;;;;;5030589;28;20520;-82
2021/12/15 12:59:21;;;;;;;49.20;26.67;;;;;;;;;;5033147;28;20970;-82
2021/12/15 13:00:49;;;;;;;44.00;24.80;;;;;;;;;;5031445;28;20480;-81
2021/12/15 13:03:19;;;;;;;48.20;26.33;;;;;;;;;;5030684;28;21006;-83
2021/12/15 13:05:48;;;;;;;41.90;24.53;;;;;;;;;;5030128;28;20475;-82
2021/12/15 13:08:15;;;;;;;39.40;26.10;;;;;;;;;;5031559;28;20485;-82
2021/12/15 13:10:53;;;;;;;48.23;24.03;;;;;;;;;;5032538;28;20471;-82
2021/12/15 13:13:21;;;;;;;39.60;24.10;;;;;;;;;;5032091;28;20484;-81
2021/12/15 13:15:51;;;;;;;40.30;22.40;;;;;;;;;;5030271;28;20461;-81
2021/12/15 13:18:17;;;;;;;40.63;22.60;;;;;;;;;;5029831;28;20699;-82
2021/12/15 13:20:52;;;;;;;30.77;19.93;;;;;;;;;;5024433;28;21064;-82
2021/12/15 13:23:37;;;;;;;37.23;21.60;;;;;;;;;;5029221;28;20507;-82
2021/12/15 13:28:49;;;;;;;37.63;20.73;;;;;;;;;;5027781;28;20499;-82
2021/12/15 13:31:19;;;;;;;39.23;21.87;;;;;;;;;;5028551;28;20485;-82
2021/12/15 13:33:47;;;;;;;46.23;23.07;;;;;;;;;;5029659;28;20488;-80
2021/12/15 13:36:14;;;;;;;41.90;22.53;;;;;;;;;;5030303;28;20453;-81
2021/12/15 13:38:43;;;;;;;35.60;23.00;;;;;;;;;;5029397;28;21020;-82
2021/12/15 13:41:20;;;;;;;35.03;21.10;;;;;;;;;;5029746;28;20507;-81
2021/12/15 13:43:48;;;;;;;42.97;23.90;;;;;;;;;;5028828;28;20485;-81
2021/12/15 13:46:30;;;;;;;48.20;25.00;;;;;;;;;;5030094;28;21141;-81
2021/12/15 13:49:07;;;;;;;41.17;24.50;;;;;;;;;;5029423;28;20477;-81
2021/12/15 13:51:52;;;;;;;38.50;23.77;;;;;;;;;;5030476;28;20448;-79
2021/12/15 13:54:48;;;;;;;38.37;23.63;;;;;;;;;;5029844;28;20531;-81
2021/12/15 13:57:19;;;;;;;51.40;25.80;;;;;;;;;;5030529;28;20476;-81
2021/12/15 13:59:48;;;;;;;47.20;25.63;;;;;;;;;;5028942;28;20552;-81
2021/12/15 14:02:16;;;;;;;42.80;23.90;;;;;;;;;;5030135;28;20438;-81
2021/12/15 14:04:44;;;;;;;40.20;23.03;;;;;;;;;;5030755;28;20473;-78
2021/12/15 14:07:44;;;;;;;38.57;21.80;;;;;;;;;;5030447;28;20850;-81
2021/12/15 14:10:29;;;;;;;39.80;24.00;;;;;;;;;;4979636;28;20471;-81
2021/12/15 14:12:58;;;;;;;41.80;23.57;;;;;;;;;;4977881;28;20933;-82
2021/12/15 14:15:44;;;;;;;38.40;22.03;;;;;;;;;;5008274;28;20466;-81
2021/12/15 14:18:11;;;;;;;42.37;22.80;;;;;;;;;;5027986;28;20468;-80
2021/12/15 14:20:39;;;;;;;34.77;23.00;;;;;;;;;;5029267;28;20468;-81
2021/12/15 14:23:07;;;;;;;36.57;21.00;;;;;;;;;;5029634;28;20469;-80
2021/12/15 14:25:35;;;;;;;39.07;24.13;;;;;;;;;;5026673;28;20512;-82
2021/12/15 14:28:06;;;;;;;33.63;20.87;;;;;;;;;;5030479;28;20460;-82
2021/12/15 14:30:33;;;;;;;32.43;20.70;;;;;;;;;;5024705;28;20484;-81
2021/12/15 14:32:59;;;;;;;37.33;21.07;;;;;;;;;;5029698;28;20733;-80
2021/12/15 14:35:26;;;;;;;32.13;20.60;;;;;;;;;;5028126;28;20468;-81
2021/12/15 14:37:52;;;;;;;34.33;20.50;;;;;;;;;;5031534;28;20458;-82
2021/12/15 14:40:19;;;;;;;33.17;18.33;;;;;;;;;;5028898;28;20488;-81
2021/12/15 14:42:45;;;;;;;36.43;18.90;;;;;;;;;;5027850;28;21018;-82
2021/12/15 14:45:14;;;;;;;36.87;21.00;;;;;;;;;;5027544;28;20511;-80
2021/12/15 14:47:42;;;;;;;33.03;19.50;;;;;;;;;;5029995;28;20461;-82
2021/12/15 14:50:11;;;;;;;28.53;18.70;;;;;;;;;;5027535;28;20477;-81
2021/12/15 14:52:38;;;;;;;31.63;18.10;;;;;;;;;;5029985;28;20523;-81
2021/12/15 14:55:06;;;;;;;31.97;18.03;;;;;;;;;;5028317;28;20470;-81
2021/12/15 14:57:33;;;;;;;30.57;17.10;;;;;;;;;;5029284;28;20454;-82
2021/12/15 15:00:02;;;;;;;35.27;17.80;;;;;;;;;;5026756;28;20496;-81
2021/12/15 15:02:32;;;;;;;27.13;16.63;;;;;;;;;;5029558;28;20432;-80
2021/12/15 15:05:00;;;;;;;28.97;17.63;;;;;;;;;;5028551;28;20487;-81
2021/12/15 15:07:28;;;;;;;27.97;17.60;;;;;;;;;;5029743;28;20469;-81
2021/12/15 15:09:56;;;;;;;33.67;18.57;;;;;;;;;;5027642;28;20477;-81
2021/12/15 15:12:24;;;;;;;26.47;16.30;;;;;;;;;;5029386;28;20909;-80
2021/12/15 15:14:51;;;;;;;35.53;17.83;;;;;;;;;;5027574;28;20855;-81
2021/12/15 15:17:28;;;;;;;31.17;18.83;;;;;;;;;;5030460;28;20947;-81
2021/12/15 15:19:57;;;;;;;33.93;18.77;;;;;;;;;;5026443;28;20586;-81
2021/12/15 15:22:24;;;;;;;30.63;17.77;;;;;;;;;;5028174;28;20464;-80
2021/12/15 15:24:51;;;;;;;30.20;18.53;;;;;;;;;;5028495;28;20485;-81
2021/12/15 15:27:19;;;;;;;31.30;17.10;;;;;;;;;;5026916;28;20491;-80
2021/12/15 15:29:46;;;;;;;28.87;18.40;;;;;;;;;;5027961;28;20473;-80